Time;durP1;ratioP1;P1;durP2;ratioP2;P2;SDS_P1;SDS_P2;PMS_P1;PMS_P2;Temp;Humidity;BMP_temperature;BMP_pressure;BME280_temperature;BME280_humidity;BME280_pressure;Samples;Min_cycle;Max_cycle;Signal;HPM_P1;HPM_P2
2022/09/04 00:00:31;;;;;;;8.95;6.38;;;;;;;13.92;100.00;101165.19;10456185;28;20063;-79
2022/09/04 00:05:37;;;;;;;7.38;5.90;;;;;;;13.97;100.00;101169.75;10456206;28;20025;-79
2022/09/04 00:11:17;;;;;;;8.63;6.03;;;;;;;13.97;100.00;101175.88;10482501;28;20044;-80
2022/09/04 00:16:42;;;;;;;9.82;6.72;;;;;;;13.88;100.00;101184.34;10467250;28;20147;-79
2022/09/04 00:21:44;;;;;;;11.02;7.07;;;;;;;13.73;100.00;101181.97;10359224;28;20481;-78
2022/09/04 00:27:12;;;;;;;5.97;5.07;;;;;;;13.61;100.00;101189.38;10375313;28;20493;-80
2022/09/04 00:32:23;;;;;;;10.82;6.35;;;;;;;13.51;100.00;101188.13;10469432;28;20087;-79
2022/09/04 00:37:27;;;;;;;8.80;7.05;;;;;;;13.53;100.00;101190.81;10494489;28;20441;-79
2022/09/04 00:42:38;;;;;;;10.82;7.80;;;;;;;13.62;100.00;101202.59;10489238;28;20067;-80
2022/09/04 00:48:09;;;;;;;7.85;5.38;;;;;;;13.60;100.00;101208.63;10440816;28;20076;-79
2022/09/04 00:53:27;;;;;;;8.60;6.27;;;;;;;13.59;100.00;101204.19;10447517;28;20066;-79
2022/09/04 00:58:48;;;;;;;12.20;8.38;;;;;;;13.54;100.00;101214.56;10468825;28;20395;-79
2022/09/04 01:04:15;;;;;;;11.38;7.53;;;;;;;13.53;100.00;101199.59;10422661;28;20045;-79
2022/09/04 01:09:29;;;;;;;12.95;8.05;;;;;;;13.53;100.00;101210.13;10443815;28;20041;-79
2022/09/04 01:14:33;;;;;;;10.07;6.10;;;;;;;13.51;100.00;101217.94;10486196;28;20033;-79
2022/09/04 01:19:52;;;;;;;11.43;8.00;;;;;;;13.48;100.00;101219.56;10490088;28;20040;-79
2022/09/04 01:24:55;;;;;;;13.60;8.57;;;;;;;13.43;100.00;101221.09;10447862;28;20507;-79
2022/09/04 01:30:05;;;;;;;14.38;7.40;;;;;;;13.36;100.00;101222.53;10455758;28;20120;-79
2022/09/04 01:35:33;;;;;;;8.57;6.82;;;;;;;13.30;100.00;101228.44;10432129;28;20561;-79
2022/09/04 01:41:04;;;;;;;11.45;6.88;;;;;;;13.18;100.00;101223.53;10439694;28;20472;-80
2022/09/04 01:46:36;;;;;;;9.20;6.78;;;;;;;13.04;100.00;101233.47;10473613;28;20495;-80
2022/09/04 01:51:40;;;;;;;;;;;;;;;13.03;100.00;101239.56;10404866;28;20090;-80
2022/09/04 01:56:50;;;;;;;9.05;7.72;;;;;;;12.91;100.00;101236.41;10446981;28;19916;-78
2022/09/04 02:02:00;;;;;;;11.20;8.32;;;;;;;12.84;100.00;101245.72;10442602;28;20043;-79
2022/09/04 02:07:25;;;;;;;10.73;8.43;;;;;;;12.82;100.00;101254.38;10453792;28;20035;-79
2022/09/04 02:12:50;;;;;;;8.77;7.30;;;;;;;12.75;100.00;101261.97;10468750;28;20041;-78
2022/09/04 02:18:18;;;;;;;10.50;7.40;;;;;;;12.71;100.00;101269.63;10443657;28;20033;-79
2022/09/04 02:24:13;;;;;;;10.57;7.75;;;;;;;12.77;100.00;101276.09;10469157;28;20115;-78
2022/09/04 02:29:40;;;;;;;10.82;8.02;;;;;;;12.82;100.00;101278.91;10338907;28;20045;-78
2022/09/04 02:35:08;;;;;;;9.25;6.90;;;;;;;12.82;100.00;101285.91;10475917;28;20086;-78
2022/09/04 02:40:18;;;;;;;8.52;6.93;;;;;;;12.82;100.00;101283.28;10484172;28;20029;-78
2022/09/04 02:45:32;;;;;;;11.80;7.55;;;;;;;12.83;100.00;101275.44;10443944;28;20045;-78
2022/09/04 02:50:57;;;;;;;10.90;8.00;;;;;;;12.85;100.00;101283.41;10478467;28;20037;-78
2022/09/04 02:56:20;;;;;;;9.90;6.28;;;;;;;12.82;100.00;101285.91;10485114;28;20024;-78
2022/09/04 03:01:26;;;;;;;12.23;7.43;;;;;;;12.83;100.00;101287.69;10474100;28;20439;-79
2022/09/04 03:06:47;;;;;;;8.45;6.85;;;;;;;12.70;100.00;101291.47;10443269;28;20068;-79
2022/09/04 03:11:58;;;;;;;8.52;6.95;;;;;;;12.64;100.00;101289.47;10453940;28;20037;-79
2022/09/04 03:17:10;;;;;;;9.65;6.63;;;;;;;12.60;100.00;101291.06;10464387;28;20048;-79
2022/09/04 03:22:22;;;;;;;12.40;7.15;;;;;;;12.55;100.00;101297.81;10456484;28;20041;-79
2022/09/04 03:27:23;;;;;;;9.15;7.78;;;;;;;12.29;100.00;101299.22;10483141;28;20025;-79
2022/09/04 03:32:25;;;;;;;10.68;8.57;;;;;;;12.11;100.00;101294.91;10480899;28;20060;-79
2022/09/04 03:38:01;;;;;;;10.52;7.63;;;;;;;12.08;100.00;101309.56;10482217;28;20396;-78
2022/09/04 03:43:20;;;;;;;8.57;6.55;;;;;;;12.13;100.00;101311.63;10428658;28;20033;-79
2022/09/04 03:48:43;;;;;;;10.27;6.93;;;;;;;12.23;100.00;101302.44;10441188;28;20059;-78
2022/09/04 03:54:04;;;;;;;10.60;7.18;;;;;;;12.25;100.00;101310.41;10496052;28;20032;-77
2022/09/04 03:59:12;;;;;;;10.75;7.25;;;;;;;12.21;100.00;101316.34;10483045;28;20037;-78
2022/09/04 04:04:34;;;;;;;11.68;7.45;;;;;;;12.19;100.00;101318.88;10463982;28;20051;-78
2022/09/04 04:09:50;;;;;;;12.07;7.68;;;;;;;12.24;100.00;101327.88;10444317;28;20049;-79
2022/09/04 04:15:02;;;;;;;11.13;7.72;;;;;;;12.27;100.00;101329.75;10458597;28;20036;-79
2022/09/04 04:20:14;;;;;;;9.93;7.45;;;;;;;12.27;100.00;101333.25;10481352;28;20492;-79
2022/09/04 04:25:46;;;;;;;10.25;7.10;;;;;;;12.31;100.00;101337.84;10444792;28;20052;-79
2022/09/04 04:30:51;;;;;;;10.25;7.13;;;;;;;12.23;100.00;101339.19;10414910;28;20044;-78
2022/09/04 04:36:20;;;;;;;12.55;7.72;;;;;;;12.09;100.00;101342.88;10439637;28;20037;-78
2022/09/04 04:47:14;;;;;;;10.05;8.20;;;;;;;12.13;100.00;101343.09;10480615;28;20531;-78
2022/09/04 04:52:18;;;;;;;13.63;8.57;;;;;;;12.23;100.00;101354.06;10462041;28;20033;-78
2022/09/04 04:57:43;;;;;;;10.50;8.43;;;;;;;12.26;100.00;101359.44;10464923;28;20094;-78
2022/09/04 05:03:00;;;;;;;11.52;8.52;;;;;;;12.37;100.00;101367.81;10453977;28;20041;-78
2022/09/04 05:08:21;;;;;;;15.65;8.52;;;;;;;12.41;100.00;101380.28;10464536;28;20123;-78
2022/09/04 05:13:40;;;;;;;12.10;8.60;;;;;;;12.36;100.00;101374.81;10480899;28;20082;-78
2022/09/04 05:18:52;;;;;;;11.02;7.97;;;;;;;12.27;100.00;101388.38;10489795;28;20047;-78
2022/09/04 05:24:12;;;;;;;13.48;8.18;;;;;;;12.31;100.00;101386.81;10468944;28;20048;-79
2022/09/04 05:29:50;;;;;;;11.80;8.00;;;;;;;12.40;100.00;101395.13;10472709;28;20041;-79
2022/09/04 05:35:16;;;;;;;9.30;7.63;;;;;;;12.63;100.00;101405.84;10452637;28;20057;-79
2022/09/04 05:40:23;;;;;;;12.43;7.55;;;;;;;12.82;100.00;101407.59;10486768;28;20056;-78
2022/09/04 05:45:39;;;;;;;11.70;7.13;;;;;;;13.03;100.00;101422.56;10486521;28;20032;-79
2022/09/04 05:50:52;;;;;;;7.75;5.95;;;;;;;13.23;100.00;101428.75;10393577;28;20041;-79
2022/09/04 05:55:57;;;;;;;;;;;;;;;13.40;100.00;101429.50;10486875;28;20039;-79
2022/09/04 06:01:13;;;;;;;10.63;6.18;;;;;;;13.45;100.00;101440.28;10409465;28;19975;-78
2022/09/04 06:06:39;;;;;;;8.90;5.93;;;;;;;13.53;100.00;101451.13;10453365;28;20095;-78
2022/09/04 06:11:45;;;;;;;8.25;5.50;;;;;;;14.68;100.00;101449.84;10444970;28;20037;-81
2022/09/04 06:16:48;;;;;;;7.72;4.35;;;;;;;16.31;97.13;101451.44;10442957;28;20037;-81
2022/09/04 06:22:10;;;;;;;5.97;4.97;;;;;;;17.61;83.81;101452.78;10443288;28;20401;-82
2022/09/04 06:28:09;;;;;;;8.30;3.97;;;;;;;19.10;76.40;101447.63;10447693;28;20056;-81
2022/09/04 06:33:16;;;;;;;5.20;3.85;;;;;;;20.69;69.03;101449.69;10366753;28;20489;-80
2022/09/04 06:38:30;;;;;;;5.70;3.42;;;;;;;21.46;64.92;101454.28;10451463;28;20048;-82
2022/09/04 06:43:36;;;;;;;6.55;3.88;;;;;;;21.38;65.29;101455.06;10442718;28;20116;-87
2022/09/04 06:48:41;;;;;;;5.43;2.85;;;;;;;22.21;64.07;101448.88;10444554;28;20041;-86
2022/09/04 06:54:04;;;;;;;5.28;3.92;;;;;;;22.99;61.46;101458.34;10400981;28;20048;-83
2022/09/04 06:59:33;;;;;;;4.95;3.30;;;;;;;22.99;61.06;101457.44;10438717;28;21004;-82
2022/09/04 07:04:49;;;;;;;6.30;3.72;;;;;;;22.89;61.27;101453.84;10482937;28;20033;-83
2022/09/04 07:10:11;;;;;;;7.57;3.75;;;;;;;23.63;60.84;101463.97;10436553;28;20416;-83
2022/09/04 07:15:14;;;;;;;;;;;;;;;24.64;57.59;101464.09;10443162;28;20075;-83
2022/09/04 07:20:24;;;;;;;6.32;3.15;;;;;;;26.14;53.69;101458.97;10465281;28;19920;-83
2022/09/04 07:25:31;;;;;;;7.07;2.75;;;;;;;26.37;52.09;101469.56;10483022;28;20036;-83
2022/09/04 07:30:48;;;;;;;3.67;2.75;;;;;;;27.65;48.17;101477.13;10423336;28;20503;-83
2022/09/04 07:36:02;;;;;;;4.85;2.60;;;;;;;27.76;48.79;101477.88;10425497;28;20473;-83
2022/09/04 07:41:13;;;;;;;2.97;2.00;;;;;;;27.94;48.38;101484.78;10452633;28;20089;-83
2022/09/04 07:46:46;;;;;;;2.83;1.95;;;;;;;28.16;47.36;101481.78;10453619;28;20500;-82
2022/09/04 07:52:13;;;;;;;6.30;2.38;;;;;;;28.50;45.24;101480.31;10425004;28;20041;-82
2022/09/04 07:57:43;;;;;;;3.60;2.25;;;;;;;28.76;44.20;101490.63;10438101;28;20054;-80
2022/09/04 08:02:49;;;;;;;4.13;2.53;;;;;;;29.87;41.84;101486.56;10408734;28;20114;-80
2022/09/04 08:08:10;;;;;;;5.25;3.38;;;;;;;29.72;42.53;101485.09;10440891;28;20041;-80
2022/09/04 08:13:24;;;;;;;3.87;2.30;;;;;;;30.83;39.54;101494.09;10440889;28;20037;-80
2022/09/04 08:19:03;;;;;;;9.23;3.42;;;;;;;30.89;39.25;101505.66;10439559;28;20047;-80
2022/09/04 08:24:28;;;;;;;4.07;2.25;;;;;;;31.36;38.56;101509.78;10436198;28;20041;-81
2022/09/04 08:29:44;;;;;;;5.13;2.60;;;;;;;31.30;38.16;101505.41;10446479;28;20063;-80
2022/09/04 08:34:57;;;;;;;7.07;2.17;;;;;;;30.55;39.41;101506.53;10445435;28;20124;-80
2022/09/04 08:40:19;;;;;;;4.28;2.17;;;;;;;30.56;39.94;101511.00;10464966;28;20036;-81
2022/09/04 08:45:56;;;;;;;3.30;1.80;;;;;;;31.83;37.46;101527.34;10478974;28;20052;-81
2022/09/04 08:51:17;;;;;;;4.05;2.60;;;;;;;32.73;35.00;101518.97;10424407;28;20068;-82
2022/09/04 08:56:40;;;;;;;2.53;1.95;;;;;;;31.86;36.74;101538.94;10423153;28;20424;-80
2022/09/04 09:02:18;;;;;;;4.15;1.73;;;;;;;32.43;35.07;101536.22;10459944;28;20155;-81
2022/09/04 09:07:53;;;;;;;3.22;2.28;;;;;;;32.40;34.21;101536.31;10440460;28;20396;-80
2022/09/04 09:13:26;;;;;;;2.85;1.95;;;;;;;31.91;34.76;101539.66;10447402;28;20496;-81
2022/09/04 09:19:00;;;;;;;3.55;1.38;;;;;;;32.24;35.55;101527.81;10441852;28;20057;-81
2022/09/04 09:24:31;;;;;;;7.22;2.13;;;;;;;32.84;33.94;101518.56;10445345;28;20438;-83
2022/09/04 09:29:50;;;;;;;4.35;2.25;;;;;;;33.33;33.46;101518.63;10447187;28;20469;-81
2022/09/04 09:35:12;;;;;;;2.45;1.45;;;;;;;33.25;34.05;101521.63;10446388;28;20041;-81
2022/09/04 09:40:31;;;;;;;3.85;2.03;;;;;;;33.66;32.24;101521.00;10447069;28;20049;-82
2022/09/04 09:45:34;;;;;;;2.67;1.40;;;;;;;33.27;32.11;101517.03;10445997;28;20075;-82
2022/09/04 09:50:44;;;;;;;3.53;1.55;;;;;;;33.92;32.20;101521.78;10439989;28;20099;-81
2022/09/04 09:56:15;;;;;;;3.33;1.90;;;;;;;33.91;31.79;101520.91;10445280;28;20044;-82
2022/09/04 10:01:24;;;;;;;2.60;1.70;;;;;;;34.11;30.18;101520.13;10403392;28;20385;-81
2022/09/04 10:06:43;;;;;;;3.38;1.90;;;;;;;34.37;30.50;101520.88;10405083;28;20075;-82
2022/09/04 10:11:53;;;;;;;4.07;2.20;;;;;;;34.01;30.70;101513.31;10403311;28;20069;-81
2022/09/04 10:17:08;;;;;;;4.35;2.40;;;;;;;34.10;30.41;101523.78;10404228;28;20033;-81
2022/09/04 10:22:44;;;;;;;4.60;1.70;;;;;;;34.70;29.97;101523.09;10403202;28;20053;-85
2022/09/04 10:28:00;;;;;;;5.13;1.77;;;;;;;34.48;28.11;101525.84;10425085;28;20037;-84
2022/09/04 10:33:22;;;;;;;3.60;1.77;;;;;;;34.23;28.14;101524.16;10445002;28;20433;-82
2022/09/04 10:40:34;;;;;;;3.85;2.30;;;;;;;35.14;27.43;101538.38;10444641;28;20396;-78
2022/09/04 10:44:34;;;;;;;3.38;2.30;;;;;;;34.72;27.44;101533.88;10443066;28;20033;-78
2022/09/04 10:49:58;;;;;;;2.97;1.98;;;;;;;34.62;28.58;101525.28;10443083;28;20508;-79
2022/09/04 10:55:19;;;;;;;3.42;1.85;;;;;;;34.52;29.98;101523.91;10445457;28;20037;-79
2022/09/04 11:00:49;;;;;;;2.40;1.90;;;;;;;34.38;28.92;101516.28;10443085;28;20040;-79
2022/09/04 11:05:59;;;;;;;4.03;2.25;;;;;;;33.65;31.17;101516.53;10391165;28;20076;-79
2022/09/04 11:11:22;;;;;;;3.45;2.13;;;;;;;33.74;29.85;101518.88;10402606;28;20037;-82
2022/09/04 11:17:11;;;;;;;3.03;2.30;;;;;;;32.80;31.12;101518.69;10400633;28;20072;-79
2022/09/04 11:22:40;;;;;;;3.55;2.08;;;;;;;33.20;30.51;101513.66;10350826;28;20440;-79
2022/09/04 11:27:59;;;;;;;3.90;2.50;;;;;;;31.04;32.09;101531.34;10425744;28;20468;-78
2022/09/04 11:33:24;;;;;;;6.05;2.80;;;;;;;29.48;36.88;101529.69;10440095;28;20040;-78
2022/09/04 11:39:02;;;;;;;8.90;3.03;;;;;;;28.66;37.37;101530.28;10439930;28;20075;-76
2022/09/04 11:44:15;;;;;;;17.15;7.45;;;;;;;28.35;38.90;101530.78;10440664;28;20033;-76
2022/09/04 11:49:37;;;;;;;5.32;2.55;;;;;;;30.83;33.10;101529.22;10432943;28;20524;-75
2022/09/04 11:54:56;;;;;;;3.38;2.42;;;;;;;31.33;31.70;101526.09;10457649;28;20480;-77
2022/09/04 12:00:12;;;;;;;3.40;2.72;;;;;;;30.30;33.21;101527.84;10435768;28;20041;-81
2022/09/04 12:05:41;;;;;;;4.53;2.75;;;;;;;28.59;36.80;101534.00;10445364;28;20090;-83
2022/09/04 12:10:52;;;;;;;9.52;5.18;;;;;;;28.62;36.79;101533.94;10409455;28;20093;-81
2022/09/04 12:16:21;;;;;;;9.23;4.18;;;;;;;31.53;32.57;101528.19;10403407;28;20440;-81
2022/09/04 12:21:31;;;;;;;6.85;3.65;;;;;;;33.63;28.29;101524.72;10440405;28;20196;-81
2022/09/04 12:26:48;;;;;;;7.40;2.60;;;;;;;33.31;29.30;101532.22;10444597;28;20048;-80
2022/09/04 12:32:07;;;;;;;4.28;2.20;;;;;;;32.46;30.28;101541.53;10462333;28;20095;-77
2022/09/04 12:37:26;;;;;;;4.65;2.65;;;;;;;33.06;28.46;101533.16;10432776;28;20087;-78
2022/09/04 12:42:52;;;;;;;6.25;2.35;;;;;;;34.59;26.19;101524.50;10454387;28;20370;-77
2022/09/04 12:48:21;;;;;;;5.32;2.03;;;;;;;33.89;28.90;101525.50;10456329;28;20044;-77
2022/09/04 12:53:52;;;;;;;4.75;2.30;;;;;;;33.93;26.29;101529.03;10487246;28;20040;-77
2022/09/04 12:59:25;;;;;;;3.38;2.00;;;;;;;32.58;29.53;101531.22;10472744;28;20124;-78
2022/09/04 13:04:32;;;;;;;3.00;2.22;;;;;;;30.27;32.95;101528.81;10449776;28;20044;-79
2022/09/04 13:10:01;;;;;;;3.15;1.88;;;;;;;32.03;30.40;101534.78;10450046;28;20385;-80
2022/09/04 13:15:08;;;;;;;2.97;2.20;;;;;;;33.66;28.44;101538.16;10450911;28;20060;-79
2022/09/04 13:20:19;;;;;;;2.95;1.55;;;;;;;33.92;28.27;101536.25;10452263;28;20040;-80
2022/09/04 13:25:29;;;;;;;;;;;;;;;33.82;27.73;101542.97;10449682;28;20033;-77
2022/09/04 13:30:30;;;;;;;6.67;2.33;;;;;;;33.90;28.16;101539.97;10455316;28;19920;-76
2022/09/04 13:35:37;;;;;;;;;;;;;;;33.88;26.40;101545.44;10448024;28;20167;-80
2022/09/04 13:41:17;;;;;;;4.00;2.28;;;;;;;34.39;24.89;101542.50;10443676;28;20336;-80
2022/09/04 13:46:28;;;;;;;3.70;1.52;;;;;;;34.04;25.20;101542.16;10441555;28;20049;-79
2022/09/04 13:51:58;;;;;;;4.10;1.95;;;;;;;34.25;24.39;101538.53;10445892;28;20580;-77
2022/09/04 13:57:19;;;;;;;2.80;1.85;;;;;;;34.15;24.73;101537.16;10400799;28;20048;-78
2022/09/04 14:02:24;;;;;;;4.35;1.60;;;;;;;32.82;27.22;101543.03;10443124;28;20053;-79
2022/09/04 14:07:35;;;;;;;2.95;1.50;;;;;;;31.37;28.80;101546.69;10439423;28;20033;-78
2022/09/04 14:13:00;;;;;;;4.10;1.95;;;;;;;32.23;28.83;101539.56;10443182;28;20044;-80
2022/09/04 14:18:06;;;;;;;4.43;2.15;;;;;;;32.21;28.05;101545.03;10440444;28;20103;-80
2022/09/04 14:23:27;;;;;;;3.05;2.00;;;;;;;31.60;28.14;101542.41;10443388;28;20392;-80
2022/09/04 14:28:39;;;;;;;2.97;1.50;;;;;;;30.30;33.32;101541.34;10440940;28;20182;-80
2022/09/04 14:33:47;;;;;;;1.95;1.23;;;;;;;30.46;31.42;101547.28;10440660;28;20511;-80
2022/09/04 14:39:08;;;;;;;2.33;1.20;;;;;;;30.75;30.67;101540.25;10450679;28;20029;-80
2022/09/04 14:44:21;;;;;;;2.47;1.48;;;;;;;31.23;30.56;101532.69;10440919;28;20040;-78
2022/09/04 14:49:22;;;;;;;15.52;11.48;;;;;;;31.57;28.16;101537.97;10434920;28;20037;-78
2022/09/04 14:54:29;;;;;;;3.55;1.70;;;;;;;32.03;27.48;101530.28;10421385;28;20037;-80
2022/09/04 14:59:40;;;;;;;3.28;1.98;;;;;;;32.10;27.13;101539.06;10407365;28;20520;-81
2022/09/04 15:04:53;;;;;;;2.97;1.60;;;;;;;30.31;31.25;101535.94;10416639;28;20504;-80
2022/09/04 15:09:54;;;;;;;4.28;1.30;;;;;;;30.10;30.63;101525.66;10404450;28;20044;-80
2022/09/04 15:15:02;;;;;;;2.67;1.25;;;;;;;29.92;29.98;101535.91;10382792;28;20037;-77
2022/09/04 15:20:06;;;;;;;2.58;1.48;;;;;;;29.70;32.70;101530.09;10436979;28;20400;-77
2022/09/04 15:25:07;;;;;;;1.48;1.17;;;;;;;29.84;30.46;101533.38;10447158;28;20451;-77
2022/09/04 15:30:16;;;;;;;4.10;1.63;;;;;;;29.94;33.25;101533.16;10421879;28;20036;-78
2022/09/04 15:35:21;;;;;;;1.63;1.20;;;;;;;29.65;32.66;101524.81;10421676;28;20814;-78
2022/09/04 15:40:27;;;;;;;1.50;1.33;;;;;;;29.54;32.75;101530.44;10437538;28;20516;-78
2022/09/04 15:45:44;;;;;;;2.72;1.67;;;;;;;29.23;31.48;101530.16;10440676;28;20029;-78
2022/09/04 15:50:57;;;;;;;6.05;1.90;;;;;;;28.70;32.10;101537.38;10441846;28;20036;-80
2022/09/04 15:56:22;;;;;;;7.30;1.67;;;;;;;28.28;33.50;101532.72;10439770;28;20112;-77
2022/09/04 16:01:25;;;;;;;2.95;1.40;;;;;;;28.05;34.60;101533.03;10438959;28;20094;-78
2022/09/04 16:06:28;;;;;;;1.65;1.10;;;;;;;27.63;34.77;101536.31;10423134;28;20079;-77
2022/09/04 16:11:35;;;;;;;2.90;1.60;;;;;;;27.18;34.39;101531.44;10449039;28;20051;-80
2022/09/04 16:16:52;;;;;;;3.15;1.95;;;;;;;26.74;35.21;101524.69;10426455;28;20049;-80
2022/09/04 16:22:23;;;;;;;15.35;11.80;;;;;;;26.58;36.64;101534.69;10443829;28;20044;-81
2022/09/04 16:27:25;;;;;;;3.60;2.33;;;;;;;26.54;39.40;101531.13;10419865;28;20033;-80
2022/09/04 16:32:27;;;;;;;5.05;1.67;;;;;;;26.39;39.42;101524.09;10452462;28;20069;-80
2022/09/04 16:37:33;;;;;;;8.38;2.70;;;;;;;26.15;39.74;101533.22;10422376;28;20431;-78
2022/09/04 16:42:45;;;;;;;4.05;1.92;;;;;;;26.00;38.25;101523.47;10439969;28;20037;-77
2022/09/04 16:47:45;;;;;;;4.00;2.03;;;;;;;25.76;39.67;101522.69;10439578;28;20069;-79
2022/09/04 16:53:13;;;;;;;2.90;1.53;;;;;;;25.34;40.95;101518.38;10439531;28;20463;-79
2022/09/04 16:58:49;;;;;;;3.45;2.03;;;;;;;24.89;42.72;101525.63;10435290;28;20128;-79
2022/09/04 17:04:13;;;;;;;4.15;1.73;;;;;;;24.54;47.50;101518.50;10402382;28;20380;-79
2022/09/04 17:09:23;;;;;;;4.50;1.95;;;;;;;24.07;48.23;101520.22;10439920;28;20080;-79
2022/09/04 17:14:31;;;;;;;3.85;1.50;;;;;;;23.69;48.79;101528.09;10429344;28;20040;-80
2022/09/04 17:19:31;;;;;;;3.63;1.85;;;;;;;23.27;50.86;101527.03;10446856;28;20048;-80
2022/09/04 17:24:36;;;;;;;9.83;4.00;;;;;;;22.87;51.71;101520.53;10428058;28;20461;-79
2022/09/04 17:29:40;;;;;;;2.08;1.40;;;;;;;22.59;53.48;101519.44;10450767;28;20410;-78
2022/09/04 17:34:44;;;;;;;3.45;1.50;;;;;;;22.26;54.12;101531.56;10468656;28;20116;-79
2022/09/04 17:39:47;;;;;;;6.75;2.42;;;;;;;21.90;54.69;101528.50;10461330;28;20376;-79
2022/09/04 17:44:54;;;;;;;3.08;1.92;;;;;;;21.60;55.24;101529.91;10468709;28;20135;-78
2022/09/04 17:49:55;;;;;;;5.22;1.85;;;;;;;21.31;56.72;101532.19;10468562;28;20041;-79
2022/09/04 17:54:58;;;;;;;3.80;2.00;;;;;;;20.95;59.29;101534.34;10447444;28;20078;-78
2022/09/04 18:00:01;;;;;;;5.13;1.98;;;;;;;20.64;59.06;101545.34;10445494;28;20045;-79
2022/09/04 18:05:10;;;;;;;4.03;1.63;;;;;;;20.42;59.49;101548.50;10475266;28;20411;-79
2022/09/04 18:10:22;;;;;;;2.92;1.85;;;;;;;20.19;59.47;101552.53;10457210;28;20555;-78
2022/09/04 18:15:30;;;;;;;4.10;1.90;;;;;;;19.92;59.92;101559.09;10451303;28;20047;-77
2022/09/04 18:20:37;;;;;;;3.75;2.00;;;;;;;19.71;60.88;101563.94;10426313;28;20045;-78
2022/09/04 18:25:43;;;;;;;2.50;2.15;;;;;;;19.43;61.33;101569.56;10472367;28;20037;-77
2022/09/04 18:30:49;;;;;;;5.28;3.03;;;;;;;19.26;61.59;101574.47;10431215;28;20041;-77
2022/09/04 18:35:59;;;;;;;4.40;3.05;;;;;;;19.08;61.34;101580.25;10419925;28;20440;-77
2022/09/04 18:41:05;;;;;;;3.58;2.08;;;;;;;18.90;62.02;101588.63;10463238;28;20558;-77
2022/09/04 18:46:06;;;;;;;3.97;2.53;;;;;;;18.59;63.24;101591.41;10457796;28;20037;-78
2022/09/04 18:51:20;;;;;;;4.00;2.20;;;;;;;18.34;63.60;101588.09;10460831;28;20048;-77
2022/09/04 18:56:27;;;;;;;2.72;2.17;;;;;;;18.12;63.91;101593.66;10462898;28;20037;-77
2022/09/04 19:01:36;;;;;;;3.65;1.88;;;;;;;17.93;67.89;101597.47;10401734;28;20065;-76
2022/09/04 19:06:38;;;;;;;3.90;2.13;;;;;;;17.75;68.75;101599.66;10440626;28;20039;-77
2022/09/04 19:11:49;;;;;;;3.40;2.15;;;;;;;17.63;69.61;101612.53;10457520;28;20037;-78
2022/09/04 19:17:05;;;;;;;4.88;2.28;;;;;;;17.59;68.28;101615.91;10456526;28;20041;-78
2022/09/04 19:22:27;;;;;;;3.15;2.10;;;;;;;17.49;68.24;101613.84;10459404;28;20087;-80
2022/09/04 19:27:38;;;;;;;3.83;2.38;;;;;;;17.31;70.41;101609.78;10456768;28;20062;-81
2022/09/04 19:32:58;;;;;;;3.33;2.25;;;;;;;17.15;71.40;101625.16;10456784;28;20439;-80
2022/09/04 19:38:02;;;;;;;4.55;2.25;;;;;;;17.12;69.11;101621.47;10459860;28;20043;-80
2022/09/04 19:43:26;;;;;;;3.50;2.25;;;;;;;17.00;69.37;101619.34;10460539;28;20044;-80
2022/09/04 19:48:42;;;;;;;3.92;2.80;;;;;;;16.81;69.55;101623.97;10442418;28;20127;-79
2022/09/04 19:53:47;;;;;;;2.92;2.17;;;;;;;16.62;69.99;101627.72;10458583;28;20446;-80
2022/09/04 19:59:03;;;;;;;6.25;2.90;;;;;;;16.60;73.83;101624.13;10426807;28;20033;-80
2022/09/04 20:04:09;;;;;;;4.25;2.30;;;;;;;16.52;75.65;101631.81;10438887;28;20465;-80
2022/09/04 20:09:43;;;;;;;3.88;2.92;;;;;;;16.37;76.63;101631.25;10441757;28;20071;-80
2022/09/04 20:14:53;;;;;;;4.25;2.38;;;;;;;16.20;77.67;101631.53;10397806;28;20489;-78
2022/09/04 20:19:59;;;;;;;3.38;2.70;;;;;;;16.08;77.72;101633.72;10438390;28;20037;-78
2022/09/04 20:25:06;;;;;;;6.03;3.03;;;;;;;16.00;76.47;101633.41;10439516;28;20029;-78
2022/09/04 20:30:10;;;;;;;3.60;2.58;;;;;;;15.96;75.29;101636.78;10439252;28;20485;-78
2022/09/04 20:35:38;;;;;;;4.45;2.65;;;;;;;15.85;75.93;101633.72;10424501;28;20557;-78
2022/09/04 20:40:40;;;;;;;4.45;2.67;;;;;;;15.74;77.29;101642.97;10421428;28;20033;-78
2022/09/04 20:45:45;;;;;;;5.57;2.92;;;;;;;15.60;77.92;101639.78;10421038;28;20048;-78
2022/09/04 20:50:57;;;;;;;5.28;3.42;;;;;;;15.48;78.38;101645.47;10444489;28;20131;-80
2022/09/04 20:56:01;;;;;;;6.00;3.38;;;;;;;15.46;79.08;101652.44;10431059;28;20401;-80
2022/09/04 21:01:04;;;;;;;6.82;3.05;;;;;;;15.53;82.00;101647.44;10464944;28;20385;-80
2022/09/04 21:06:30;;;;;;;5.07;2.65;;;;;;;15.50;81.76;101646.44;10489649;28;20041;-79
2022/09/04 21:11:37;;;;;;;9.00;3.03;;;;;;;15.42;82.01;101646.13;10468656;28;20114;-79
2022/09/04 21:17:02;;;;;;;3.78;3.03;;;;;;;15.33;82.38;101649.31;10458881;28;20063;-79
2022/09/04 21:22:50;;;;;;;4.40;3.17;;;;;;;15.33;82.80;101649.31;10464476;28;20041;-79
2022/09/04 21:28:10;;;;;;;4.95;2.80;;;;;;;15.43;81.57;101644.41;10420102;28;20370;-79
2022/09/04 21:33:30;;;;;;;4.90;3.30;;;;;;;15.56;80.21;101655.47;10481499;28;20476;-80
2022/09/04 21:38:40;;;;;;;5.45;3.55;;;;;;;15.56;79.46;101652.84;10474454;28;20025;-79
2022/09/04 21:43:46;;;;;;;4.15;3.50;;;;;;;15.45;80.60;101650.63;10450537;28;20044;-79
2022/09/04 21:49:05;;;;;;;3.75;2.78;;;;;;;15.24;81.64;101660.34;10447630;28;20113;-80
2022/09/04 21:54:31;;;;;;;5.00;2.95;;;;;;;15.20;82.94;101660.19;10446826;28;20045;-80
2022/09/04 21:59:56;;;;;;;5.85;3.80;;;;;;;15.11;83.06;101651.06;10447299;28;20049;-79
2022/09/04 22:05:19;;;;;;;4.55;3.13;;;;;;;15.07;84.41;101653.47;10484161;28;20397;-79
2022/09/04 22:10:29;;;;;;;6.35;3.90;;;;;;;14.95;84.56;101648.63;10478212;28;20378;-79
2022/09/04 22:16:06;;;;;;;6.50;4.03;;;;;;;14.89;85.29;101651.88;10446198;28;20127;-78
2022/09/04 22:21:44;;;;;;;5.95;4.45;;;;;;;14.83;85.26;101659.50;10460280;28;20493;-79
2022/09/04 22:27:06;;;;;;;8.68;3.75;;;;;;;14.73;85.54;101654.69;10485680;28;20045;-79
2022/09/04 22:33:02;;;;;;;5.22;3.67;;;;;;;14.64;86.07;101666.59;10463876;28;20049;-79
2022/09/04 22:38:35;;;;;;;6.60;3.75;;;;;;;14.64;86.36;101671.88;10353791;28;20037;-79
2022/09/04 22:43:37;;;;;;;7.97;3.67;;;;;;;14.65;86.18;101675.41;10469726;28;20638;-79
2022/09/04 22:48:41;;;;;;;5.82;3.75;;;;;;;14.62;85.97;101672.66;10442859;28;20059;-79
2022/09/04 22:54:16;;;;;;;4.63;3.05;;;;;;;14.52;85.91;101674.88;10480992;28;20036;-78
2022/09/04 22:59:31;;;;;;;9.23;5.47;;;;;;;14.50;87.03;101675.63;10486558;28;20075;-79
2022/09/04 23:05:03;;;;;;;4.75;3.53;;;;;;;14.45;87.21;101679.78;10403803;28;20052;-79
2022/09/04 23:10:13;;;;;;;5.90;4.07;;;;;;;14.38;87.34;101674.25;10409904;28;20044;-79
2022/09/04 23:15:39;;;;;;;10.48;4.25;;;;;;;14.37;88.38;101671.56;10475370;28;20045;-79
2022/09/04 23:20:45;;;;;;;10.30;5.55;;;;;;;14.35;88.20;101676.72;10411697;28;20052;-79
2022/09/04 23:26:07;;;;;;;7.20;4.32;;;;;;;14.23;88.45;101676.19;10442152;28;20484;-79
2022/09/04 23:31:24;;;;;;;5.68;4.20;;;;;;;14.13;89.36;101677.50;10421259;28;20213;-79
2022/09/04 23:36:32;;;;;;;4.88;3.95;;;;;;;14.01;89.81;101675.19;10441774;28;20060;-79
2022/09/04 23:41:39;;;;;;;5.07;3.78;;;;;;;13.93;89.98;101676.56;10426974;28;20038;-79
2022/09/04 23:46:58;;;;;;;8.98;4.82;;;;;;;13.84;90.52;101677.06;10400951;28;20091;-79
2022/09/04 23:52:28;;;;;;;9.07;5.10;;;;;;;13.79;90.66;101671.56;10400156;28;20367;-79
2022/09/04 23:57:38;;;;;;;7.05;4.03;;;;;;;13.76;91.09;101676.66;10405443;28;20485;-78
